createdAt,value
2018-12-10T00:00:14.663Z,67.30
2018-12-10T00:01:15.727Z,67.00
2018-12-10T00:02:16.698Z,67.00
2018-12-10T00:03:23.783Z,67.60
2018-12-10T00:04:24.735Z,66.80
2018-12-10T00:05:25.696Z,66.60
2018-12-10T00:06:26.762Z,66.70
2018-12-10T00:07:27.724Z,66.50
2018-12-10T00:08:28.696Z,66.50
2018-12-10T00:09:29.760Z,66.60
2018-12-10T00:10:30.711Z,66.50
2018-12-10T00:11:31.972Z,66.50
2018-12-10T00:12:33.039Z,66.50
2018-12-10T00:13:34.005Z,66.60
2018-12-10T00:14:35.052Z,66.50
2018-12-10T00:15:36.108Z,66.50
2018-12-10T00:16:37.283Z,66.60
2018-12-10T00:17:38.235Z,66.50
2018-12-10T00:18:39.294Z,66.60
2018-12-10T00:19:40.255Z,66.40
2018-12-10T00:20:41.211Z,66.90
2018-12-10T00:21:42.168Z,66.90
2018-12-10T00:22:43.135Z,66.90
2018-12-10T00:23:44.142Z,67.30
2018-12-10T00:24:45.095Z,67.20
2018-12-10T00:25:46.085Z,67.40
2018-12-10T00:26:47.103Z,67.40
2018-12-10T00:27:48.065Z,67.30
2018-12-10T00:28:49.123Z,67.50
2018-12-10T00:29:50.079Z,67.50
2018-12-10T00:30:51.074Z,67.60
2018-12-10T00:31:52.039Z,67.80
2018-12-10T00:32:53.112Z,67.60
2018-12-10T00:33:54.075Z,67.60
2018-12-10T00:34:55.020Z,67.80
2018-12-10T00:35:55.984Z,67.70
2018-12-10T00:36:56.937Z,67.70
2018-12-10T00:37:57.904Z,67.80
2018-12-10T00:38:58.978Z,67.50
2018-12-10T00:39:59.956Z,67.40
2018-12-10T00:41:01.146Z,67.30
2018-12-10T00:42:02.120Z,66.80
2018-12-10T00:43:03.190Z,66.90
2018-12-10T00:44:04.158Z,66.60
2018-12-10T00:45:05.331Z,66.70
2018-12-10T00:46:06.307Z,67.20
2018-12-10T00:47:07.259Z,66.50
2018-12-10T00:48:08.215Z,66.70
2018-12-10T00:49:12.139Z,66.40
2018-12-10T00:50:13.088Z,66.30
2018-12-10T00:51:14.255Z,66.40
2018-12-10T00:52:15.232Z,66.30
2018-12-10T00:53:16.195Z,66.30
2018-12-10T00:54:17.159Z,66.70
2018-12-10T00:55:18.107Z,66.40
2018-12-10T00:56:19.070Z,66.40
2018-12-10T00:57:20.027Z,67.30
2018-12-10T00:58:21.100Z,66.60
2018-12-10T00:59:22.052Z,66.80
2018-12-10T01:00:23.117Z,67.00
2018-12-10T01:01:24.071Z,67.00
2018-12-10T01:02:25.035Z,67.20
2018-12-10T01:03:25.987Z,67.40
2018-12-10T01:04:26.938Z,67.50
2018-12-10T01:05:27.894Z,67.70
2018-12-10T01:06:28.859Z,68.00
2018-12-10T01:07:29.813Z,68.10
2018-12-10T01:08:30.892Z,68.40
2018-12-10T01:09:31.955Z,68.30
2018-12-10T01:10:33.124Z,68.40
2018-12-10T01:11:34.080Z,68.50
2018-12-10T01:12:35.035Z,68.10
2018-12-10T01:13:36.101Z,67.90
2018-12-10T01:14:37.055Z,68.40
2018-12-10T01:15:38.026Z,68.30
2018-12-10T01:16:39.091Z,68.10
2018-12-10T01:17:40.047Z,68.30
2018-12-10T01:18:41.016Z,67.80
2018-12-10T01:19:41.980Z,67.90
2018-12-10T01:20:42.931Z,68.10
2018-12-10T01:21:43.891Z,68.00
2018-12-10T01:22:44.837Z,68.10
2018-12-10T01:23:45.807Z,68.30
2018-12-10T01:24:46.775Z,67.90
2018-12-10T01:25:47.737Z,67.80
2018-12-10T01:26:48.693Z,68.00
2018-12-10T01:27:49.799Z,68.00
2018-12-10T01:28:50.775Z,67.50
2018-12-10T01:29:51.736Z,67.70
2018-12-10T01:30:52.799Z,67.90
2018-12-10T01:31:53.763Z,67.90
2018-12-10T01:32:54.726Z,67.80
2018-12-10T01:33:55.685Z,67.70
2018-12-10T01:34:56.747Z,67.90
2018-12-10T01:35:57.711Z,67.70
2018-12-10T01:36:58.709Z,67.60
2018-12-10T01:37:59.659Z,67.50
2018-12-10T01:39:00.628Z,67.30
2018-12-10T01:40:01.698Z,67.50
2018-12-10T01:41:02.767Z,67.40
2018-12-10T01:42:03.823Z,67.00
2018-12-10T01:43:04.789Z,67.50
2018-12-10T01:44:05.990Z,67.30
2018-12-10T01:45:07.166Z,67.00
2018-12-10T01:46:08.142Z,66.90
2018-12-10T01:47:09.103Z,66.60
2018-12-10T01:48:10.077Z,66.90
2018-12-10T01:49:11.051Z,66.50
2018-12-10T01:50:11.996Z,66.90
2018-12-10T01:51:13.051Z,66.90
2018-12-10T01:52:14.008Z,66.60
2018-12-10T01:53:14.956Z,66.80
2018-12-10T01:54:15.916Z,67.10
2018-12-10T01:55:16.983Z,67.30
2018-12-10T01:56:18.075Z,67.20
2018-12-10T01:57:19.111Z,67.00
2018-12-10T01:58:20.063Z,66.70
2018-12-10T01:59:21.028Z,66.40
2018-12-10T02:00:22.105Z,66.40
2018-12-10T02:01:23.075Z,66.10
2018-12-10T02:02:24.043Z,66.20
2018-12-10T02:03:25.002Z,66.50
2018-12-10T02:04:25.969Z,66.50
2018-12-10T02:05:26.929Z,66.10
2018-12-10T02:06:27.890Z,66.10
2018-12-10T02:07:28.893Z,66.20
2018-12-10T02:08:29.852Z,66.40
2018-12-10T02:09:30.911Z,66.60
2018-12-10T02:10:32.103Z,66.40
2018-12-10T02:11:33.177Z,66.50
2018-12-10T02:12:34.239Z,66.80
2018-12-10T02:13:35.203Z,66.30
2018-12-10T02:14:36.266Z,66.50
2018-12-10T02:15:37.307Z,66.50
2018-12-10T02:16:38.383Z,66.10
2018-12-10T02:17:39.451Z,66.00
2018-12-10T02:18:40.407Z,66.00
2018-12-10T02:19:41.476Z,67.00
2018-12-10T02:20:42.628Z,65.90
2018-12-10T02:21:43.595Z,66.00
2018-12-10T02:22:44.552Z,65.90
2018-12-10T02:23:45.791Z,66.00
2018-12-10T02:24:46.955Z,66.00
2018-12-10T02:25:48.124Z,65.70
2018-12-10T02:26:49.289Z,65.50
2018-12-10T02:27:50.251Z,65.50
2018-12-10T02:28:57.411Z,65.40
2018-12-10T02:29:58.375Z,65.10
2018-12-10T02:30:59.369Z,64.90
2018-12-10T02:32:00.585Z,65.20
2018-12-10T02:33:01.881Z,64.50
2018-12-10T02:34:02.948Z,65.70
2018-12-10T02:35:04.115Z,64.70
2018-12-10T02:36:05.076Z,64.40
2018-12-10T02:37:06.035Z,64.30
2018-12-10T02:38:07.099Z,64.40
2018-12-10T02:39:08.071Z,64.30
2018-12-10T02:40:09.147Z,64.40
2018-12-10T02:41:10.133Z,64.50
2018-12-10T02:42:11.211Z,64.20
2018-12-10T02:43:12.270Z,64.20
2018-12-10T02:44:13.379Z,64.00
2018-12-10T02:45:14.531Z,64.10
2018-12-10T02:46:15.594Z,63.90
2018-12-10T02:47:16.767Z,64.40
2018-12-10T02:48:18.717Z,63.70
2018-12-10T02:49:19.835Z,63.70
2018-12-10T02:50:20.802Z,63.80
2018-12-10T02:51:21.864Z,64.00
2018-12-10T02:52:23.051Z,63.50
2018-12-10T02:53:24.109Z,64.00
2018-12-10T02:54:25.085Z,63.90
2018-12-10T02:55:26.047Z,63.80
2018-12-10T02:56:27.014Z,64.00
2018-12-10T02:57:28.078Z,64.00
2018-12-10T02:58:29.270Z,64.20
2018-12-10T02:59:30.335Z,64.40
2018-12-10T03:00:31.400Z,64.30
2018-12-10T03:01:32.407Z,64.40
2018-12-10T03:02:33.371Z,64.40
2018-12-10T03:03:34.347Z,64.40
2018-12-10T03:04:35.318Z,64.20
2018-12-10T03:05:36.489Z,64.30
2018-12-10T03:06:37.560Z,64.30
2018-12-10T03:07:38.523Z,64.30
2018-12-10T03:08:39.480Z,64.30
2018-12-10T03:09:40.641Z,64.50
2018-12-10T03:10:41.706Z,64.50
2018-12-10T03:11:42.771Z,64.40
2018-12-10T03:12:43.826Z,64.40
2018-12-10T03:13:44.791Z,64.50
2018-12-10T03:14:45.881Z,64.40
2018-12-10T03:15:47.075Z,64.40
2018-12-10T03:16:48.158Z,64.40
2018-12-10T03:17:49.229Z,64.70
2018-12-10T03:18:50.195Z,65.00
2018-12-10T03:19:51.164Z,65.50
2018-12-10T03:20:52.925Z,65.80
2018-12-10T03:21:54.183Z,65.80
2018-12-10T03:22:55.256Z,65.50
2018-12-10T03:23:56.237Z,65.80
2018-12-10T03:24:57.347Z,65.60
2018-12-10T03:25:58.308Z,65.50
2018-12-10T03:26:59.437Z,65.60
2018-12-10T03:28:00.601Z,65.30
2018-12-10T03:29:01.563Z,65.50
2018-12-10T03:30:03.345Z,65.10
2018-12-10T03:31:04.417Z,64.70
2018-12-10T03:32:05.379Z,65.00
2018-12-10T03:33:06.562Z,64.90
2018-12-10T03:34:07.731Z,65.00
2018-12-10T03:35:08.799Z,64.20
2018-12-10T03:36:09.864Z,64.30
2018-12-10T03:37:10.927Z,65.00
2018-12-10T03:38:11.896Z,64.70
2018-12-10T03:39:13.265Z,64.60
2018-12-10T03:40:14.411Z,64.70
2018-12-10T03:41:15.433Z,64.60
2018-12-10T03:42:16.425Z,64.50
2018-12-10T03:43:17.607Z,64.50
2018-12-10T03:44:18.742Z,64.10
2018-12-10T03:45:19.814Z,64.00
2018-12-10T03:46:20.771Z,63.80
2018-12-10T03:47:21.734Z,64.80
2018-12-10T03:48:22.788Z,64.00
2018-12-10T03:49:23.756Z,63.70
2018-12-10T03:50:24.821Z,63.60
2018-12-10T03:51:25.875Z,63.90
2018-12-10T03:52:26.829Z,63.10
2018-12-10T03:53:27.912Z,63.10
2018-12-10T03:54:28.875Z,63.10
2018-12-10T03:55:29.832Z,63.30
2018-12-10T03:56:30.900Z,63.30
2018-12-10T03:57:31.955Z,63.20
2018-12-10T03:58:32.915Z,63.40
2018-12-10T03:59:33.986Z,62.90
2018-12-10T04:00:34.947Z,63.90
2018-12-10T04:01:36.010Z,63.30
2018-12-10T04:02:36.972Z,63.30
2018-12-10T04:03:37.920Z,63.30
2018-12-10T04:04:38.884Z,63.30
2018-12-10T04:05:39.945Z,63.60
2018-12-10T04:06:40.904Z,63.30
2018-12-10T04:07:41.856Z,63.50
2018-12-10T04:08:42.819Z,63.60
2018-12-10T04:09:43.784Z,63.70
2018-12-10T04:10:44.839Z,63.70
2018-12-10T04:11:45.791Z,64.00
2018-12-10T04:12:46.745Z,64.00
2018-12-10T04:13:47.823Z,64.20
2018-12-10T04:14:48.793Z,65.30
2018-12-10T04:15:49.868Z,64.90
2018-12-10T04:16:51.143Z,65.30
2018-12-10T04:17:52.092Z,65.50
2018-12-10T04:18:53.276Z,65.80
2018-12-10T04:19:54.239Z,65.80
2018-12-10T04:20:55.197Z,65.80
2018-12-10T04:21:56.161Z,65.80
2018-12-10T04:22:57.336Z,65.80
2018-12-10T04:23:58.408Z,65.80
2018-12-10T04:24:59.384Z,66.00
2018-12-10T04:26:00.346Z,66.90
2018-12-10T04:27:01.431Z,66.10
2018-12-10T04:28:02.495Z,65.90
2018-12-10T04:29:03.443Z,66.00
2018-12-10T04:30:04.529Z,66.20
2018-12-10T04:31:05.600Z,66.40
2018-12-10T04:32:06.671Z,66.20
2018-12-10T04:33:07.620Z,66.30
2018-12-10T04:34:08.575Z,65.80
2018-12-10T04:35:09.536Z,66.50
2018-12-10T04:36:10.605Z,66.30
2018-12-10T04:37:11.583Z,66.10
2018-12-10T04:38:12.566Z,65.80
2018-12-10T04:39:13.536Z,65.60
2018-12-10T04:40:14.508Z,65.80
2018-12-10T04:41:15.460Z,65.70
2018-12-10T04:42:16.427Z,65.80
2018-12-10T04:43:17.389Z,65.60
2018-12-10T04:44:18.375Z,65.60
2018-12-10T04:45:19.554Z,65.70
2018-12-10T04:46:20.543Z,65.70
2018-12-10T04:47:21.619Z,65.70
2018-12-10T04:48:22.582Z,65.70
2018-12-10T04:49:23.544Z,65.70
2018-12-10T04:50:24.619Z,66.00
2018-12-10T04:51:25.564Z,66.20
2018-12-10T04:52:26.522Z,66.20
2018-12-10T04:53:27.696Z,66.50
2018-12-10T04:54:28.781Z,66.30
2018-12-10T04:55:29.749Z,66.40
2018-12-10T04:56:30.697Z,67.50
2018-12-10T04:57:31.871Z,66.70
2018-12-10T04:58:32.854Z,66.40
2018-12-10T04:59:33.811Z,66.50
2018-12-10T05:00:34.798Z,66.10
2018-12-10T05:01:35.755Z,66.10
2018-12-10T05:02:36.826Z,67.00
2018-12-10T05:03:37.784Z,65.60
2018-12-10T05:04:38.731Z,65.60
2018-12-10T05:05:39.719Z,65.60
2018-12-10T05:06:40.667Z,65.90
2018-12-10T05:07:41.744Z,66.70
2018-12-10T05:08:43.030Z,65.70
2018-12-10T05:09:43.990Z,65.60
2018-12-10T05:10:45.335Z,65.70
2018-12-10T05:11:46.296Z,65.70
2018-12-10T05:12:47.271Z,65.70
2018-12-10T05:13:48.220Z,65.70
2018-12-10T05:14:49.283Z,65.70
2018-12-10T05:15:50.263Z,65.70
2018-12-10T05:16:51.263Z,65.50
2018-12-10T05:17:52.233Z,65.70
2018-12-10T05:18:53.640Z,65.70
2018-12-10T05:19:54.607Z,65.60
2018-12-10T05:20:55.575Z,65.40
2018-12-10T05:21:56.529Z,65.50
2018-12-10T05:22:57.490Z,65.40
2018-12-10T05:23:58.551Z,65.40
2018-12-10T05:24:59.513Z,65.30
2018-12-10T05:26:00.606Z,65.20
2018-12-10T05:27:01.564Z,65.20
2018-12-10T05:28:02.623Z,65.60
2018-12-10T05:29:03.591Z,65.60
2018-12-10T05:30:04.872Z,65.80
2018-12-10T05:31:06.051Z,66.20
2018-12-10T05:32:07.011Z,66.40
2018-12-10T05:33:07.972Z,66.40
2018-12-10T05:34:08.923Z,66.70
2018-12-10T05:35:09.882Z,66.00
2018-12-10T05:36:18.040Z,66.00
2018-12-10T05:37:19.007Z,66.90
2018-12-10T05:38:19.992Z,66.60
2018-12-10T05:39:20.957Z,66.60
2018-12-10T05:40:21.919Z,66.90
2018-12-10T05:41:22.888Z,66.10
2018-12-10T05:42:23.857Z,66.20
2018-12-10T05:43:24.964Z,66.30
2018-12-10T05:44:26.015Z,66.50
2018-12-10T05:45:26.972Z,66.90
2018-12-10T05:46:27.927Z,67.40
2018-12-10T05:47:28.881Z,67.70
2018-12-10T05:48:29.956Z,68.30
2018-12-10T05:49:30.914Z,68.30
2018-12-10T05:50:31.975Z,69.10
2018-12-10T05:51:33.060Z,69.30
2018-12-10T05:52:34.011Z,70.00
2018-12-10T05:53:34.963Z,70.20
2018-12-10T05:54:35.927Z,70.20
2018-12-10T05:55:36.893Z,70.40
2018-12-10T05:56:37.976Z,70.60
2018-12-10T05:57:38.931Z,70.60
2018-12-10T05:58:39.894Z,70.10
2018-12-10T05:59:40.845Z,70.20
2018-12-10T06:00:41.923Z,70.40
2018-12-10T06:01:43.029Z,70.60
2018-12-10T06:02:44.091Z,70.50
2018-12-10T06:03:45.046Z,70.30
2018-12-10T06:04:45.991Z,70.30
2018-12-10T06:05:47.068Z,70.90
2018-12-10T06:06:48.035Z,70.00
2018-12-10T06:07:49.092Z,70.00
2018-12-10T06:08:50.052Z,70.10
2018-12-10T06:09:51.286Z,70.10
2018-12-10T06:10:52.520Z,69.80
2018-12-10T06:11:53.489Z,69.40
2018-12-10T06:12:54.452Z,69.50
2018-12-10T06:13:55.419Z,70.10
2018-12-10T06:14:56.425Z,69.60
2018-12-10T06:15:57.383Z,69.50
2018-12-10T06:16:58.361Z,69.40
2018-12-10T06:17:59.444Z,69.30
2018-12-10T06:19:00.476Z,69.40
2018-12-10T06:20:01.656Z,69.30
2018-12-10T06:21:02.628Z,69.10
2018-12-10T06:22:03.616Z,69.10
2018-12-10T06:23:11.523Z,69.10
2018-12-10T06:24:12.483Z,69.10
2018-12-10T06:25:13.577Z,68.90
2018-12-10T06:26:14.652Z,68.60
2018-12-10T06:27:15.620Z,69.10
2018-12-10T06:28:16.589Z,68.70
2018-12-10T06:29:17.548Z,68.30
2018-12-10T06:30:18.695Z,68.50
2018-12-10T06:31:19.654Z,68.10
2018-12-10T06:32:20.668Z,68.50
2018-12-10T06:33:21.656Z,68.70
2018-12-10T06:34:22.651Z,68.60
2018-12-10T06:35:23.619Z,68.70
2018-12-10T06:36:24.599Z,68.60
2018-12-10T06:37:25.670Z,69.00
2018-12-10T06:38:26.927Z,69.10
2018-12-10T06:39:27.899Z,69.10
2018-12-10T06:40:28.874Z,69.00
2018-12-10T06:41:29.907Z,69.10
2018-12-10T06:42:30.981Z,69.10
2018-12-10T06:43:32.063Z,69.10
2018-12-10T06:44:33.048Z,69.10
2018-12-10T06:45:34.016Z,69.10
2018-12-10T06:46:34.975Z,69.10
2018-12-10T06:47:35.951Z,69.10
2018-12-10T06:48:36.907Z,69.40
2018-12-10T06:49:37.877Z,69.10
2018-12-10T06:50:38.947Z,69.20
2018-12-10T06:51:39.958Z,69.20
2018-12-10T06:52:40.907Z,69.70
2018-12-10T06:53:41.868Z,69.70
2018-12-10T06:54:42.832Z,69.70
2018-12-10T06:55:43.791Z,70.00
2018-12-10T06:56:44.751Z,70.10
2018-12-10T06:57:45.717Z,70.10
2018-12-10T06:58:46.780Z,70.00
2018-12-10T06:59:47.840Z,70.10
2018-12-10T07:00:48.914Z,70.10
2018-12-10T07:01:49.976Z,70.00
2018-12-10T07:02:51.048Z,70.00
2018-12-10T07:03:53.059Z,70.00
2018-12-10T07:04:54.120Z,70.00
2018-12-10T07:05:55.103Z,70.20
2018-12-10T07:06:56.070Z,69.90
2018-12-10T07:07:57.142Z,70.00
2018-12-10T07:08:58.092Z,70.00
2018-12-10T07:09:59.041Z,70.00
2018-12-10T07:10:59.999Z,70.20
2018-12-10T07:12:00.979Z,70.10
2018-12-10T07:13:02.027Z,70.30
2018-12-10T07:14:03.323Z,70.00
2018-12-10T07:15:04.836Z,70.00
2018-12-10T07:16:05.906Z,70.70
2018-12-10T07:17:06.990Z,70.00
2018-12-10T07:18:07.940Z,70.20
2018-12-10T07:19:08.907Z,70.10
2018-12-10T07:20:09.967Z,70.40
2018-12-10T07:21:11.031Z,70.50
2018-12-10T07:22:11.989Z,70.40
2018-12-10T07:23:13.067Z,70.50
2018-12-10T07:24:14.127Z,70.50
2018-12-10T07:25:15.191Z,70.30
2018-12-10T07:26:16.145Z,70.00
2018-12-10T07:27:17.094Z,70.30
2018-12-10T07:28:18.210Z,70.40
2018-12-10T07:29:19.180Z,70.20
2018-12-10T07:30:20.152Z,70.00
2018-12-10T07:31:21.117Z,69.90
2018-12-10T07:32:22.188Z,69.70
2018-12-10T07:33:23.148Z,69.60
2018-12-10T07:34:24.113Z,69.70
2018-12-10T07:35:25.189Z,69.70
2018-12-10T07:36:26.147Z,69.70
2018-12-10T07:37:27.099Z,69.70
2018-12-10T07:38:28.157Z,69.60
2018-12-10T07:39:29.156Z,69.60
2018-12-10T07:40:30.221Z,69.60
2018-12-10T07:41:31.371Z,69.60
2018-12-10T07:42:32.323Z,69.70
2018-12-10T07:43:33.329Z,69.60
2018-12-10T07:44:34.331Z,69.60
2018-12-10T07:45:35.318Z,69.60
2018-12-10T07:46:36.276Z,69.60
2018-12-10T07:47:37.263Z,69.60
2018-12-10T07:48:38.237Z,69.70
2018-12-10T07:49:39.195Z,69.40
2018-12-10T07:50:40.143Z,69.10
2018-12-10T07:51:41.107Z,69.60
2018-12-10T07:52:42.071Z,69.20
2018-12-10T07:53:43.027Z,69.10
2018-12-10T07:54:44.084Z,69.10
2018-12-10T07:55:45.160Z,69.00
2018-12-10T07:56:46.127Z,69.00
2018-12-10T07:57:47.087Z,69.00
2018-12-10T07:58:48.179Z,68.90
2018-12-10T07:59:49.135Z,68.50
2018-12-10T08:00:50.097Z,68.10
2018-12-10T08:01:51.061Z,68.00
2018-12-10T08:02:52.011Z,67.90
2018-12-10T08:03:53.292Z,67.80
2018-12-10T08:04:54.301Z,67.50
2018-12-10T08:05:55.408Z,67.60
2018-12-10T08:06:56.489Z,67.60
2018-12-10T08:07:57.556Z,67.30
2018-12-10T08:08:58.567Z,67.40
2018-12-10T08:09:59.781Z,67.50
2018-12-10T08:11:00.745Z,66.80
2018-12-10T08:12:01.963Z,66.60
2018-12-10T08:13:03.027Z,66.40
2018-12-10T08:14:04.011Z,66.40
2018-12-10T08:15:05.285Z,66.20
2018-12-10T08:16:06.327Z,66.00
2018-12-10T08:17:07.315Z,66.30
2018-12-10T08:18:08.280Z,66.20
2018-12-10T08:19:09.235Z,66.10
2018-12-10T08:20:10.187Z,66.20
2018-12-10T08:21:11.252Z,66.00
2018-12-10T08:22:12.251Z,65.90
2018-12-10T08:23:13.304Z,66.20
2018-12-10T08:24:14.267Z,66.00
2018-12-10T08:25:15.227Z,65.80
2018-12-10T08:26:16.432Z,65.70
2018-12-10T08:27:17.495Z,66.00
2018-12-10T08:28:18.467Z,65.90
2018-12-10T08:29:19.419Z,65.60
2018-12-10T08:30:20.375Z,65.50
2018-12-10T08:31:21.340Z,65.10
2018-12-10T08:32:22.414Z,65.40
2018-12-10T08:33:23.405Z,64.60
2018-12-10T08:34:24.415Z,65.00
2018-12-10T08:35:25.467Z,64.90
2018-12-10T08:36:26.412Z,64.90
2018-12-10T08:37:27.484Z,65.00
2018-12-10T08:38:28.480Z,64.80
2018-12-10T08:39:29.582Z,64.50
2018-12-10T08:40:30.603Z,64.40
2018-12-10T08:41:31.692Z,64.50
2018-12-10T08:42:32.703Z,64.50
2018-12-10T08:43:33.775Z,64.70
2018-12-10T08:44:34.719Z,64.80
2018-12-10T08:45:35.924Z,64.60
2018-12-10T08:46:36.888Z,64.30
2018-12-10T08:47:37.849Z,64.30
2018-12-10T08:48:38.814Z,64.30
2018-12-10T08:49:39.791Z,64.40
2018-12-10T08:50:40.961Z,64.20
2018-12-10T08:51:42.008Z,64.60
2018-12-10T08:52:43.081Z,64.80
2018-12-10T08:53:44.047Z,63.90
2018-12-10T08:54:45.113Z,63.80
2018-12-10T08:55:46.076Z,63.40
2018-12-10T08:56:47.077Z,63.70
2018-12-10T08:57:48.200Z,63.60
2018-12-10T08:58:49.171Z,63.50
2018-12-10T08:59:50.131Z,64.50
2018-12-10T09:00:51.087Z,64.00
2018-12-10T09:01:52.047Z,63.50
2018-12-10T09:02:53.147Z,63.70
2018-12-10T09:03:54.337Z,63.60
2018-12-10T09:04:55.307Z,63.10
2018-12-10T09:05:56.386Z,63.70
2018-12-10T09:06:57.652Z,63.80
2018-12-10T09:07:58.622Z,64.00
2018-12-10T09:08:59.597Z,63.70
2018-12-10T09:10:00.571Z,63.60
2018-12-10T09:11:01.532Z,63.40
2018-12-10T09:12:02.692Z,63.70
2018-12-10T09:13:03.760Z,63.80
2018-12-10T09:14:04.719Z,63.90
2018-12-10T09:15:05.902Z,64.00
2018-12-10T09:16:06.902Z,64.30
2018-12-10T09:17:07.864Z,64.70
2018-12-10T09:18:08.832Z,65.00
2018-12-10T09:19:09.813Z,64.50
2018-12-10T09:20:10.807Z,64.90
2018-12-10T09:21:11.796Z,65.00
2018-12-10T09:22:13.087Z,64.90
2018-12-10T09:23:14.151Z,64.80
2018-12-10T09:24:15.135Z,65.50
2018-12-10T09:25:16.345Z,64.50
2018-12-10T09:26:17.299Z,64.80
2018-12-10T09:27:18.261Z,64.20
2018-12-10T09:28:19.661Z,64.30
2018-12-10T09:29:20.859Z,63.80
2018-12-10T09:30:21.823Z,63.70
2018-12-10T09:31:22.992Z,63.30
2018-12-10T09:32:23.975Z,63.50
2018-12-10T09:33:25.044Z,63.20
2018-12-10T09:34:26.017Z,63.20
2018-12-10T09:35:27.023Z,63.40
2018-12-10T09:36:28.139Z,63.60
2018-12-10T09:37:29.227Z,63.50
2018-12-10T09:38:30.301Z,63.70
2018-12-10T09:39:31.452Z,63.50
2018-12-10T09:40:32.415Z,63.70
2018-12-10T09:41:33.477Z,63.60
2018-12-10T09:42:34.435Z,63.60
2018-12-10T09:43:35.419Z,64.00
2018-12-10T09:44:36.404Z,63.80
2018-12-10T09:45:37.467Z,63.20
2018-12-10T09:46:38.643Z,63.30
2018-12-10T09:47:39.798Z,63.60
2018-12-10T09:48:40.776Z,64.00
2018-12-10T09:49:48.564Z,64.00
2018-12-10T09:50:49.673Z,63.90
2018-12-10T09:51:50.644Z,63.80
2018-12-10T09:52:51.605Z,63.70
2018-12-10T09:53:52.579Z,63.80
2018-12-10T09:54:53.568Z,63.40
2018-12-10T09:55:54.535Z,63.10
2018-12-10T09:56:55.599Z,63.30
2018-12-10T09:57:56.660Z,63.30
2018-12-10T09:58:57.745Z,63.30
2018-12-10T09:59:58.824Z,63.10
2018-12-10T10:00:59.791Z,63.10
2018-12-10T10:02:00.747Z,63.20
2018-12-10T10:03:01.819Z,63.10
2018-12-10T10:04:03.054Z,62.20
2018-12-10T10:05:04.257Z,62.60
2018-12-10T10:06:05.208Z,62.80
2018-12-10T10:07:06.282Z,62.70
2018-12-10T10:08:07.257Z,62.40
2018-12-10T10:09:08.247Z,62.50
2018-12-10T10:10:09.420Z,62.60
2018-12-10T10:11:10.492Z,62.50
2018-12-10T10:12:11.461Z,62.20
2018-12-10T10:13:12.427Z,62.40
2018-12-10T10:14:13.384Z,62.30
2018-12-10T10:15:14.458Z,62.10
2018-12-10T10:16:15.424Z,62.30
2018-12-10T10:17:16.394Z,62.50
2018-12-10T10:18:17.362Z,61.90
2018-12-10T10:19:18.452Z,62.50
2018-12-10T10:20:19.426Z,62.90
2018-12-10T10:21:20.616Z,62.30
2018-12-10T10:22:21.758Z,62.00
2018-12-10T10:23:22.883Z,61.60
2018-12-10T10:24:23.961Z,62.00
2018-12-10T10:25:24.919Z,61.80
2018-12-10T10:26:25.987Z,62.30
2018-12-10T10:27:26.955Z,62.60
2018-12-10T10:28:27.926Z,62.20
2018-12-10T10:29:29.007Z,61.70
2018-12-10T10:30:29.971Z,61.90
2018-12-10T10:31:31.600Z,61.70
2018-12-10T10:32:32.835Z,61.20
2018-12-10T10:33:33.903Z,61.20
2018-12-10T10:34:34.864Z,62.00
2018-12-10T10:35:35.921Z,61.20
2018-12-10T10:36:36.918Z,61.30
2018-12-10T10:37:38.036Z,61.20
2018-12-10T10:38:38.999Z,61.20
2018-12-10T10:39:39.971Z,61.30
2018-12-10T10:40:41.027Z,61.40
2018-12-10T10:41:42.189Z,60.80
2018-12-10T10:42:43.187Z,61.00
2018-12-10T10:43:44.359Z,60.90
2018-12-10T10:44:45.321Z,60.80
2018-12-10T10:45:46.277Z,60.20
2018-12-10T10:46:47.457Z,60.60
2018-12-10T10:47:48.447Z,61.00
2018-12-10T10:48:49.407Z,61.20
2018-12-10T10:49:50.438Z,61.20
2018-12-10T10:50:51.409Z,61.30
2018-12-10T10:51:52.516Z,61.20
2018-12-10T10:52:53.599Z,61.20
2018-12-10T10:53:54.576Z,61.00
2018-12-10T10:54:55.619Z,61.20
2018-12-10T10:55:56.725Z,61.20
2018-12-10T10:56:57.816Z,61.20
2018-12-10T10:57:58.816Z,61.20
2018-12-10T10:58:59.777Z,61.10
2018-12-10T11:00:01.027Z,61.10
2018-12-10T11:01:08.039Z,61.10
2018-12-10T11:02:19.984Z,61.50
2018-12-10T11:03:27.248Z,61.60
2018-12-10T11:04:28.233Z,61.60
2018-12-10T11:05:29.208Z,61.90
2018-12-10T11:06:30.175Z,61.90
2018-12-10T11:07:31.196Z,61.80
2018-12-10T11:08:32.296Z,62.20
2018-12-10T11:09:33.436Z,62.30
2018-12-10T11:10:35.525Z,62.20
2018-12-10T11:11:36.719Z,62.70
2018-12-10T11:12:37.848Z,61.80
2018-12-10T11:13:38.946Z,62.00
2018-12-10T11:14:40.058Z,62.00
2018-12-10T11:15:41.192Z,62.10
2018-12-10T11:16:42.440Z,61.90
2018-12-10T11:17:43.781Z,61.90
2018-12-10T11:18:44.857Z,61.60
2018-12-10T11:19:45.833Z,61.80
2018-12-10T11:20:46.911Z,61.10
2018-12-10T11:21:48.084Z,61.40
2018-12-10T11:22:49.800Z,61.50
2018-12-10T11:23:50.969Z,61.70
2018-12-10T11:24:59.011Z,61.80
2018-12-10T11:26:00.191Z,61.70
2018-12-10T11:27:01.265Z,61.50
2018-12-10T11:28:02.468Z,61.20
2018-12-10T11:29:03.444Z,62.00
2018-12-10T11:30:04.630Z,61.20
2018-12-10T11:31:05.647Z,61.20
2018-12-10T11:32:06.935Z,61.20
2018-12-10T11:33:08.039Z,61.20
2018-12-10T11:34:09.135Z,61.30
2018-12-10T11:35:10.335Z,61.40
2018-12-10T11:36:11.424Z,61.10
2018-12-10T11:37:12.409Z,60.40
2018-12-10T11:38:13.617Z,60.40
2018-12-10T11:39:14.683Z,60.10
2018-12-10T11:40:22.653Z,60.30
2018-12-10T11:41:24.616Z,60.00
2018-12-10T11:42:25.699Z,59.80
2018-12-10T11:43:26.722Z,60.40
2018-12-10T11:44:27.692Z,59.90
2018-12-10T11:45:28.821Z,60.00
2018-12-10T11:46:29.787Z,60.00
2018-12-10T11:47:30.759Z,60.20
2018-12-10T11:48:31.750Z,60.60
2018-12-10T11:49:32.720Z,60.00
2018-12-10T11:50:40.679Z,60.10
2018-12-10T11:51:41.700Z,60.30
2018-12-10T11:52:42.805Z,60.50
2018-12-10T11:53:44.251Z,60.00
2018-12-10T11:54:45.338Z,60.00
2018-12-10T11:55:46.347Z,59.50
2018-12-10T11:56:47.423Z,59.60
2018-12-10T11:57:48.440Z,59.60
2018-12-10T11:58:49.411Z,59.50
2018-12-10T11:59:50.511Z,59.50
2018-12-10T12:00:51.504Z,59.80
2018-12-10T12:01:53.131Z,59.70
2018-12-10T12:02:55.307Z,59.70
2018-12-10T12:03:57.448Z,59.80
2018-12-10T12:04:59.092Z,59.80
2018-12-10T12:06:01.147Z,59.30
2018-12-10T12:07:02.355Z,59.40
2018-12-10T12:08:03.452Z,59.70
2018-12-10T12:09:11.222Z,59.40
2018-12-10T12:10:12.213Z,59.00
2018-12-10T12:11:13.277Z,59.10
2018-12-10T12:12:14.258Z,58.90
2018-12-10T12:13:15.359Z,59.10
2018-12-10T12:14:16.438Z,58.80
2018-12-10T12:15:17.631Z,58.80
2018-12-10T12:16:18.615Z,58.80
2018-12-10T12:17:19.615Z,58.90
2018-12-10T12:18:20.692Z,58.80
2018-12-10T12:19:21.695Z,59.00
2018-12-10T12:20:22.705Z,58.70
2018-12-10T12:21:23.827Z,58.90
2018-12-10T12:22:24.931Z,58.90
2018-12-10T12:23:26.465Z,58.80
2018-12-10T12:24:27.494Z,58.70
2018-12-10T12:25:29.170Z,58.50
2018-12-10T12:26:30.297Z,58.60
2018-12-10T12:27:31.385Z,58.90
2018-12-10T12:28:32.332Z,59.10
2018-12-10T12:29:33.292Z,59.00
2018-12-10T12:30:34.279Z,59.00
2018-12-10T12:31:35.302Z,59.00
2018-12-10T12:32:36.319Z,58.70
2018-12-10T12:33:37.387Z,58.20
2018-12-10T12:34:38.419Z,58.40
2018-12-10T12:35:39.401Z,58.60
2018-12-10T12:36:40.360Z,58.20
2018-12-10T12:37:41.388Z,58.10
2018-12-10T12:38:42.364Z,58.20
2018-12-10T12:39:43.336Z,58.30
2018-12-10T12:40:44.564Z,58.70
2018-12-10T12:41:45.557Z,58.70
2018-12-10T12:42:46.544Z,58.50
2018-12-10T12:43:47.646Z,58.50
2018-12-10T12:44:48.720Z,58.50
2018-12-10T12:45:49.804Z,57.50
2018-12-10T12:46:50.767Z,57.70
2018-12-10T12:47:51.747Z,58.10
2018-12-10T12:48:52.810Z,58.20
2018-12-10T12:49:53.911Z,57.50
2018-12-10T12:50:55.011Z,58.00
2018-12-10T12:51:56.063Z,57.80
2018-12-10T12:52:57.021Z,57.30
2018-12-10T12:53:58.003Z,57.10
2018-12-10T12:54:58.969Z,57.40
2018-12-10T12:56:00.055Z,56.90
2018-12-10T12:57:01.031Z,57.50
2018-12-10T12:58:02.232Z,57.50
2018-12-10T12:59:04.493Z,57.30
2018-12-10T13:00:05.877Z,57.50
2018-12-10T13:01:06.982Z,57.50
2018-12-10T13:02:08.051Z,57.00
2018-12-10T13:03:09.161Z,57.40
2018-12-10T13:04:10.131Z,57.90
2018-12-10T13:05:11.155Z,58.00
2018-12-10T13:06:19.358Z,57.80
2018-12-10T13:07:20.391Z,57.90